createdAt,value
2019-04-07T00:02:21.224Z,24.67
2019-04-07T00:04:51.411Z,27.37
2019-04-07T00:07:21.586Z,27.13
2019-04-07T00:09:54.149Z,21.70
2019-04-07T00:12:24.336Z,23.57
2019-04-07T00:14:55.228Z,24.98
2019-04-07T00:17:26.142Z,24.75
2019-04-07T00:19:56.954Z,23.55
2019-04-07T00:22:28.094Z,27.40
2019-04-07T00:24:58.398Z,26.30
2019-04-07T00:27:28.532Z,25.52
2019-04-07T00:29:59.893Z,22.30
2019-04-07T00:32:30.392Z,24.37
2019-04-07T00:35:00.607Z,23.98
2019-04-07T00:37:31.158Z,31.23
2019-04-07T00:40:02.231Z,25.60
2019-04-07T00:42:32.643Z,28.73
2019-04-07T00:45:03.482Z,25.10
2019-04-07T00:47:33.957Z,29.27
2019-04-07T00:50:04.530Z,25.25
2019-04-07T00:52:34.930Z,25.37
2019-04-07T00:55:06.599Z,29.77
2019-04-07T00:57:37.798Z,27.40
2019-04-07T01:00:10.587Z,26.90
2019-04-07T01:02:41.491Z,24.18
2019-04-07T01:05:12.687Z,30.00
2019-04-07T01:07:43.629Z,25.52
2019-04-07T01:10:14.116Z,27.80
2019-04-07T01:12:44.559Z,35.63
2019-04-07T01:15:15.127Z,33.00
2019-04-07T01:17:45.704Z,32.03
2019-04-07T01:20:17.487Z,30.75
2019-04-07T01:22:48.523Z,30.48
2019-04-07T01:25:19.296Z,30.92
2019-04-07T01:27:49.956Z,25.15
2019-04-07T01:30:20.334Z,28.65
2019-04-07T01:32:51.018Z,28.57
2019-04-07T01:35:21.366Z,29.65
2019-04-07T01:37:51.778Z,29.25
2019-04-07T01:40:22.079Z,28.30
2019-04-07T01:43:14.260Z,26.05
2019-04-07T01:46:02.236Z,30.40
2019-04-07T01:48:49.923Z,28.17
2019-04-07T01:51:40.154Z,28.02
2019-04-07T01:54:30.861Z,24.50
2019-04-07T01:57:20.171Z,28.02
2019-04-07T02:00:03.104Z,27.10
2019-04-07T02:02:58.289Z,32.25
2019-04-07T02:05:41.896Z,25.57
2019-04-07T02:08:23.216Z,28.00
2019-04-07T02:11:06.154Z,29.75
2019-04-07T02:13:43.884Z,30.35
2019-04-07T02:16:22.682Z,27.77
2019-04-07T02:19:24.105Z,26.57
2019-04-07T02:22:04.608Z,30.88
2019-04-07T02:24:53.068Z,27.42
2019-04-07T02:27:32.713Z,32.35
2019-04-07T02:30:39.249Z,30.50
2019-04-07T02:33:31.303Z,27.32
2019-04-07T02:36:25.952Z,25.72
2019-04-07T02:39:19.537Z,26.55
2019-04-07T02:42:04.703Z,25.70
2019-04-07T02:44:46.469Z,26.90
2019-04-07T02:47:28.002Z,25.48
2019-04-07T02:50:14.150Z,27.98
2019-04-07T02:53:06.150Z,30.65
2019-04-07T02:55:55.087Z,25.65
2019-04-07T02:58:38.090Z,30.02
2019-04-07T03:01:43.410Z,33.88
2019-04-07T03:04:38.426Z,29.82
2019-04-07T03:07:23.811Z,29.30
2019-04-07T03:10:19.150Z,33.50
2019-04-07T03:13:07.881Z,28.67
2019-04-07T03:16:04.329Z,26.60
2019-04-07T03:18:52.844Z,30.40
2019-04-07T03:21:50.381Z,33.42
2019-04-07T03:24:45.630Z,27.87
2019-04-07T03:27:33.845Z,28.62
2019-04-07T03:30:33.679Z,32.28
2019-04-07T03:33:26.150Z,31.35
2019-04-07T03:36:06.222Z,27.58
2019-04-07T03:38:53.730Z,29.67
2019-04-07T03:41:35.323Z,31.35
2019-04-07T03:44:24.345Z,29.25
2019-04-07T03:47:08.811Z,30.97
2019-04-07T03:50:04.262Z,32.42
2019-04-07T03:53:12.472Z,26.48
2019-04-07T03:56:04.416Z,31.93
2019-04-07T03:59:11.702Z,34.78
2019-04-07T04:02:19.683Z,31.93
2019-04-07T04:05:01.657Z,28.12
2019-04-07T04:07:44.230Z,33.60
2019-04-07T04:10:23.723Z,34.38
2019-04-07T04:13:12.924Z,29.82
2019-04-07T04:15:51.471Z,38.23
2019-04-07T04:18:22.542Z,32.78
2019-04-07T04:20:52.903Z,33.67
2019-04-07T04:23:23.206Z,30.77
2019-04-07T04:25:53.736Z,33.58
2019-04-07T04:28:24.104Z,29.07
2019-04-07T04:30:54.225Z,29.10
2019-04-07T04:33:24.357Z,37.00
2019-04-07T04:35:54.549Z,31.95
2019-04-07T04:38:24.664Z,35.98
2019-04-07T04:40:55.066Z,33.02
2019-04-07T04:43:25.488Z,32.65
2019-04-07T04:45:56.827Z,31.65
2019-04-07T04:48:27.835Z,36.23
2019-04-07T04:50:58.193Z,33.48
2019-04-07T04:53:29.139Z,34.48
2019-04-07T04:55:59.600Z,38.92
2019-04-07T04:58:30.291Z,32.95
2019-04-07T05:01:00.972Z,32.98
2019-04-07T05:03:31.582Z,31.45
2019-04-07T05:06:02.390Z,30.23
2019-04-07T05:08:32.517Z,40.45
2019-04-07T05:11:03.124Z,35.55
2019-04-07T05:13:34.151Z,40.00
2019-04-07T05:16:04.988Z,34.45
2019-04-07T05:18:35.996Z,33.40
2019-04-07T05:21:06.144Z,40.12
2019-04-07T05:23:36.429Z,37.45
2019-04-07T05:26:06.985Z,31.85
2019-04-07T05:28:37.950Z,32.90
2019-04-07T05:31:08.833Z,31.87
2019-04-07T05:33:39.933Z,32.08
2019-04-07T05:36:10.433Z,33.08
2019-04-07T05:38:40.997Z,33.60
2019-04-07T05:41:11.785Z,34.40
2019-04-07T05:43:42.703Z,33.50
2019-04-07T05:46:13.713Z,33.60
2019-04-07T05:48:44.537Z,35.35
2019-04-07T05:51:14.817Z,32.05
2019-04-07T05:53:47.409Z,31.07
2019-04-07T05:56:18.563Z,27.77
2019-04-07T05:58:48.850Z,30.02
2019-04-07T06:01:23.179Z,34.50
2019-04-07T06:03:51.122Z,36.33
2019-04-07T06:06:21.597Z,25.55
2019-04-07T06:08:51.881Z,33.98
2019-04-07T06:11:22.049Z,31.90
2019-04-07T06:13:52.879Z,33.65
2019-04-07T06:16:23.733Z,30.23
2019-04-07T06:18:53.929Z,31.40
2019-04-07T06:21:26.214Z,30.97
2019-04-07T06:23:59.866Z,28.45
2019-04-07T06:26:28.358Z,28.23
2019-04-07T06:28:59.108Z,31.10
2019-04-07T06:31:32.196Z,31.82
2019-04-07T06:34:01.940Z,35.10
2019-04-07T06:36:32.115Z,32.53
2019-04-07T06:39:03.790Z,34.15
2019-04-07T06:41:34.300Z,31.87
2019-04-07T06:44:11.277Z,29.42
2019-04-07T06:46:45.825Z,27.75
2019-04-07T06:49:33.820Z,26.60
2019-04-07T06:52:39.503Z,36.50
2019-04-07T06:55:33.363Z,30.62
2019-04-07T06:58:38.812Z,36.42
2019-04-07T07:01:29.677Z,27.85
2019-04-07T07:04:17.987Z,37.13
2019-04-07T07:07:07.343Z,26.85
2019-04-07T07:09:54.825Z,33.18
2019-04-07T07:12:50.698Z,29.07
2019-04-07T07:15:49.376Z,33.23
2019-04-07T07:18:40.336Z,33.90
2019-04-07T07:21:31.521Z,27.80
2019-04-07T07:24:04.962Z,27.22
2019-04-07T07:26:35.551Z,28.32
2019-04-07T07:29:06.697Z,29.57
2019-04-07T07:31:37.899Z,27.87
2019-04-07T07:34:10.118Z,28.32
2019-04-07T07:36:40.802Z,31.02
2019-04-07T07:39:12.551Z,28.38
2019-04-07T07:41:43.422Z,28.87
2019-04-07T07:44:14.387Z,31.02
2019-04-07T07:46:44.745Z,33.18
2019-04-07T07:49:14.917Z,30.65
2019-04-07T07:51:47.550Z,28.65
2019-04-07T07:54:17.288Z,27.00
2019-04-07T07:56:50.205Z,27.62
2019-04-07T07:59:20.074Z,37.15
2019-04-07T08:01:51.671Z,25.57
2019-04-07T08:04:24.950Z,31.00
2019-04-07T08:06:54.533Z,27.73
2019-04-07T08:09:25.988Z,30.05
2019-04-07T08:11:56.630Z,24.20
2019-04-07T08:14:27.366Z,31.02
2019-04-07T08:17:00.164Z,26.20
2019-04-07T08:19:30.824Z,26.77
2019-04-07T08:22:01.901Z,31.02
2019-04-07T08:24:32.712Z,28.83
2019-04-07T08:27:04.022Z,35.58
2019-04-07T08:29:37.141Z,25.77
2019-04-07T08:32:06.605Z,26.42
2019-04-07T08:34:37.238Z,29.67
2019-04-07T08:37:08.365Z,28.38
2019-04-07T08:39:38.817Z,31.50
2019-04-07T08:42:11.156Z,28.50
2019-04-07T08:44:41.896Z,29.07
2019-04-07T08:47:18.990Z,28.50
2019-04-07T08:49:44.077Z,32.60
2019-04-07T08:52:15.712Z,26.55
2019-04-07T08:54:50.377Z,30.85
2019-04-07T08:57:20.045Z,27.70
2019-04-07T08:59:50.767Z,33.02
2019-04-07T09:02:22.427Z,39.08
2019-04-07T09:04:54.667Z,34.80
2019-04-07T09:07:24.836Z,54.30
2019-04-07T09:09:55.551Z,41.40
2019-04-07T09:12:28.885Z,34.45
2019-04-07T09:14:58.337Z,34.13
2019-04-07T09:17:45.778Z,35.30
2019-04-07T09:20:48.413Z,35.50
2019-04-07T09:23:48.108Z,40.52
2019-04-07T09:26:46.806Z,37.15
2019-04-07T09:29:28.137Z,43.63
2019-04-07T09:32:17.769Z,33.98
2019-04-07T09:35:02.002Z,43.45
2019-04-07T09:37:44.947Z,35.95
2019-04-07T09:41:00.554Z,31.60
2019-04-07T09:43:52.883Z,38.70
2019-04-07T09:46:44.340Z,34.60
2019-04-07T09:49:39.162Z,33.40
2019-04-07T09:52:28.354Z,27.98
2019-04-07T09:55:16.848Z,29.45
2019-04-07T09:58:08.001Z,36.20
2019-04-07T10:00:59.694Z,33.92
2019-04-07T10:03:38.727Z,31.55
2019-04-07T10:06:33.847Z,26.80
2019-04-07T10:09:11.804Z,24.30
2019-04-07T10:11:55.419Z,22.40
2019-04-07T10:14:48.785Z,29.82
2019-04-07T10:17:37.250Z,29.23
2019-04-07T10:20:25.971Z,27.55
2019-04-07T10:23:17.142Z,31.57
2019-04-07T10:26:04.122Z,33.98
2019-04-07T10:28:43.047Z,30.12
2019-04-07T10:31:20.843Z,28.15
2019-04-07T10:34:13.435Z,28.77
2019-04-07T10:37:08.961Z,21.95
2019-04-07T10:39:59.491Z,22.45
2019-04-07T10:42:57.716Z,20.45
2019-04-07T10:45:35.069Z,24.77
2019-04-07T10:48:25.921Z,22.25
2019-04-07T10:51:14.949Z,19.90
2019-04-07T10:54:03.576Z,25.00
2019-04-07T10:56:51.867Z,23.25
2019-04-07T10:59:46.469Z,23.38
2019-04-07T11:02:31.433Z,23.25
2019-04-07T11:05:09.843Z,22.98
2019-04-07T11:07:59.002Z,26.45
2019-04-07T11:10:46.748Z,21.10
2019-04-07T11:13:34.470Z,20.10
2019-04-07T11:16:11.509Z,21.05
2019-04-07T11:19:00.668Z,27.02
2019-04-07T11:21:43.611Z,33.90
2019-04-07T11:24:35.906Z,20.02
2019-04-07T11:27:37.637Z,22.98
2019-04-07T11:30:14.412Z,26.57
2019-04-07T11:32:56.348Z,17.85
2019-04-07T11:35:48.781Z,19.95
2019-04-07T11:38:41.574Z,22.22
2019-04-07T11:41:27.136Z,23.02
2019-04-07T11:44:26.568Z,19.82
2019-04-07T11:47:09.841Z,23.60
2019-04-07T11:49:55.688Z,22.77
2019-04-07T11:52:32.077Z,20.37
2019-04-07T11:55:31.280Z,22.25
2019-04-07T11:58:15.611Z,21.57
2019-04-07T12:00:51.562Z,20.27
2019-04-07T12:03:35.997Z,21.42
2019-04-07T12:06:14.362Z,23.90
2019-04-07T12:09:03.316Z,19.60
2019-04-07T12:12:05.810Z,20.88
2019-04-07T12:14:57.721Z,20.50
2019-04-07T12:17:50.259Z,20.15
2019-04-07T12:20:38.521Z,26.25
2019-04-07T12:23:27.825Z,22.05
2019-04-07T12:26:20.544Z,20.32
2019-04-07T12:29:09.051Z,21.15
2019-04-07T12:32:10.604Z,22.22
2019-04-07T12:35:03.193Z,26.65
2019-04-07T12:37:50.220Z,22.95
2019-04-07T12:40:38.825Z,18.45
2019-04-07T12:43:26.155Z,21.68
2019-04-07T12:46:22.161Z,18.15
2019-04-07T12:49:15.493Z,22.62
2019-04-07T12:52:05.465Z,18.15
2019-04-07T12:54:56.881Z,24.47
2019-04-07T12:57:44.771Z,23.60
2019-04-07T13:00:54.455Z,20.97
2019-04-07T13:03:26.267Z,28.25
2019-04-07T13:06:33.597Z,20.23
2019-04-07T13:09:16.095Z,17.00
2019-04-07T13:11:55.815Z,23.30
2019-04-07T13:14:44.052Z,13.85
2019-04-07T13:17:39.762Z,23.30
2019-04-07T13:20:21.530Z,18.42
2019-04-07T13:23:17.671Z,18.17
2019-04-07T13:26:30.232Z,19.12
2019-04-07T13:29:02.339Z,20.10
2019-04-07T13:31:56.850Z,18.12
2019-04-07T13:34:49.781Z,15.30
2019-04-07T13:37:35.897Z,19.73
2019-04-07T13:40:15.842Z,22.90
2019-04-07T13:43:17.634Z,16.95
2019-04-07T13:46:20.639Z,14.25
2019-04-07T13:49:05.218Z,15.25
2019-04-07T13:52:00.616Z,12.63
2019-04-07T13:54:50.104Z,13.43
2019-04-07T13:57:43.912Z,12.13
2019-04-07T14:00:45.323Z,13.03
2019-04-07T14:03:42.056Z,13.22
2019-04-07T14:06:32.824Z,10.78
2019-04-07T14:09:27.179Z,13.15
2019-04-07T14:12:18.670Z,11.97
2019-04-07T14:15:05.212Z,10.93
2019-04-07T14:18:03.626Z,14.80
2019-04-07T14:20:43.109Z,15.45
2019-04-07T14:23:34.254Z,12.07
2019-04-07T14:26:29.624Z,14.80
2019-04-07T14:29:20.873Z,14.15
2019-04-07T14:32:09.934Z,11.03
2019-04-07T14:35:26.935Z,13.68
2019-04-07T14:38:29.067Z,10.85
2019-04-07T14:41:29.247Z,9.28
2019-04-07T14:44:25.986Z,10.13
2019-04-07T14:47:16.969Z,12.20
2019-04-07T14:50:04.929Z,10.85
2019-04-07T14:53:14.315Z,11.65
2019-04-07T14:55:57.178Z,12.33
2019-04-07T14:58:53.829Z,10.00
2019-04-07T15:01:39.729Z,9.90
2019-04-07T15:04:10.790Z,12.55
2019-04-07T15:06:42.816Z,11.00
2019-04-07T15:09:26.412Z,11.90
2019-04-07T15:12:14.750Z,11.30
2019-04-07T15:14:37.339Z,10.43
2019-04-07T15:17:07.810Z,12.23
2019-04-07T15:19:38.653Z,12.03
2019-04-07T15:22:10.449Z,11.75
2019-04-07T15:24:46.714Z,13.00
2019-04-07T15:27:23.320Z,12.13
2019-04-07T15:29:52.375Z,9.80
2019-04-07T15:32:26.592Z,11.48
2019-04-07T15:34:54.613Z,9.88
2019-04-07T15:37:25.852Z,11.53
2019-04-07T15:39:57.030Z,12.13
2019-04-07T15:42:37.739Z,10.98
2019-04-07T15:44:59.966Z,12.45
2019-04-07T15:47:30.914Z,11.70
2019-04-07T15:50:01.212Z,11.78
2019-04-07T15:52:32.405Z,10.43
2019-04-07T15:55:02.567Z,10.20
2019-04-07T15:57:33.178Z,16.30
2019-04-07T16:00:05.266Z,10.78
2019-04-07T16:02:40.877Z,12.90
2019-04-07T16:05:10.455Z,11.68
2019-04-07T16:07:41.824Z,10.80
2019-04-07T16:10:12.233Z,8.50
2019-04-07T16:12:46.507Z,10.23
2019-04-07T16:15:16.502Z,9.68
2019-04-07T16:17:47.571Z,9.08
2019-04-07T16:20:22.887Z,10.05
2019-04-07T16:22:52.685Z,14.83
2019-04-07T16:25:27.503Z,8.98
2019-04-07T16:27:54.908Z,12.25
2019-04-07T16:30:25.881Z,15.98
2019-04-07T16:32:59.692Z,8.98
2019-04-07T16:35:28.054Z,8.20
2019-04-07T16:38:00.041Z,8.80
2019-04-07T16:40:30.191Z,9.93
2019-04-07T16:43:11.668Z,14.15
2019-04-07T16:45:34.011Z,10.68
2019-04-07T16:48:06.193Z,9.95
2019-04-07T16:50:36.901Z,10.63
2019-04-07T16:53:08.239Z,8.65
2019-04-07T16:55:47.448Z,10.63
2019-04-07T16:58:15.872Z,9.73
2019-04-07T17:00:46.185Z,10.35
2019-04-07T17:03:18.398Z,11.10
2019-04-07T17:05:55.745Z,12.37
2019-04-07T17:08:24.617Z,11.15
2019-04-07T17:10:56.125Z,9.53
2019-04-07T17:13:34.692Z,13.20
2019-04-07T17:15:59.347Z,8.50
2019-04-07T17:18:41.109Z,11.57
2019-04-07T17:21:15.597Z,11.38
2019-04-07T17:23:46.302Z,13.35
2019-04-07T17:26:16.472Z,9.35
2019-04-07T17:28:48.465Z,15.50
2019-04-07T17:31:18.809Z,14.07
2019-04-07T17:33:49.073Z,8.80
2019-04-07T17:36:21.663Z,10.43
2019-04-07T17:39:14.488Z,12.23
2019-04-07T17:41:48.309Z,12.73
2019-04-07T17:44:32.747Z,10.95
2019-04-07T17:47:12.482Z,12.37
2019-04-07T17:50:12.623Z,14.30
2019-04-07T17:53:14.148Z,9.65
2019-04-07T17:55:58.968Z,10.05
2019-04-07T17:59:04.561Z,9.85
2019-04-07T18:02:00.425Z,10.55
2019-04-07T18:05:08.457Z,12.75
2019-04-07T18:08:01.807Z,9.33
2019-04-07T18:11:00.132Z,11.03
2019-04-07T18:13:50.901Z,14.83
2019-04-07T18:16:37.749Z,8.70
2019-04-07T18:19:31.501Z,10.78
2019-04-07T18:22:11.196Z,13.50
2019-04-07T18:25:05.241Z,9.75
2019-04-07T18:28:07.654Z,9.58
2019-04-07T18:31:13.286Z,9.85
2019-04-07T18:34:04.061Z,9.63
2019-04-07T18:36:54.290Z,10.50
2019-04-07T18:39:54.555Z,8.35
2019-04-07T18:42:49.397Z,7.65
2019-04-07T18:45:44.066Z,9.43
2019-04-07T18:48:32.868Z,8.85
2019-04-07T18:51:18.576Z,13.05
2019-04-07T18:54:05.367Z,10.85
2019-04-07T18:56:44.064Z,9.15
2019-04-07T18:59:22.388Z,7.83
2019-04-07T19:02:14.324Z,12.43
2019-04-07T19:05:03.953Z,9.00
2019-04-07T19:07:54.494Z,9.00
2019-04-07T19:11:06.231Z,10.10
2019-04-07T19:13:44.617Z,11.00
2019-04-07T19:16:27.691Z,13.10
2019-04-07T19:19:15.576Z,16.15
2019-04-07T19:22:10.996Z,10.95
2019-04-07T19:24:49.532Z,9.75
2019-04-07T19:27:42.632Z,10.38
2019-04-07T19:30:26.842Z,11.35
2019-04-07T19:33:15.124Z,10.68
2019-04-07T19:36:10.059Z,11.12
2019-04-07T19:38:51.151Z,11.95
2019-04-07T19:41:56.356Z,9.48
2019-04-07T19:44:46.183Z,13.03
2019-04-07T19:47:41.688Z,10.63
2019-04-07T19:50:34.973Z,9.00
2019-04-07T19:53:32.557Z,10.43
2019-04-07T19:56:33.798Z,15.30
2019-04-07T19:59:22.135Z,10.05
2019-04-07T20:02:03.629Z,11.20
2019-04-07T20:04:53.519Z,10.18
2019-04-07T20:07:42.832Z,11.95
2019-04-07T20:10:33.755Z,9.88
2019-04-07T20:13:19.887Z,11.68
2019-04-07T20:16:01.140Z,9.68
2019-04-07T20:18:58.568Z,9.20
2019-04-07T20:21:55.054Z,14.03
2019-04-07T20:24:46.429Z,10.68
2019-04-07T20:27:37.422Z,11.40
2019-04-07T20:30:21.026Z,12.53
2019-04-07T20:33:02.750Z,14.87
2019-04-07T20:36:01.132Z,9.93
2019-04-07T20:38:37.965Z,12.15
2019-04-07T20:41:23.981Z,11.35
2019-04-07T20:44:16.691Z,9.33
2019-04-07T20:46:59.355Z,10.53
2019-04-07T20:49:58.787Z,10.10
2019-04-07T20:52:50.532Z,12.00
2019-04-07T20:55:30.941Z,10.95
2019-04-07T20:58:25.404Z,12.03
2019-04-07T21:01:18.748Z,13.08
2019-04-07T21:04:19.760Z,12.55
2019-04-07T21:07:11.262Z,15.03
2019-04-07T21:10:04.497Z,10.38
2019-04-07T21:12:50.659Z,10.58
2019-04-07T21:15:53.090Z,11.48
2019-04-07T21:18:45.259Z,14.80
2019-04-07T21:21:41.424Z,15.13
2019-04-07T21:24:19.862Z,11.60
2019-04-07T21:26:59.354Z,13.95
2019-04-07T21:29:53.739Z,14.40
2019-04-07T21:32:41.777Z,12.40
2019-04-07T21:35:19.472Z,11.95
2019-04-07T21:38:06.377Z,11.48
2019-04-07T21:40:55.547Z,9.93
2019-04-07T21:43:44.614Z,10.58
2019-04-07T21:46:27.471Z,12.75
2019-04-07T21:49:25.795Z,9.75
2019-04-07T21:52:04.577Z,12.33
2019-04-07T21:54:57.832Z,10.40
2019-04-07T21:57:53.571Z,8.75
2019-04-07T22:00:44.012Z,11.40
2019-04-07T22:03:39.510Z,8.75
2019-04-07T22:06:18.927Z,11.95
2019-04-07T22:08:56.292Z,17.35
2019-04-07T22:11:28.956Z,14.63
2019-04-07T22:13:58.332Z,14.07
2019-04-07T22:16:31.377Z,15.85
2019-04-07T22:19:01.383Z,13.25
2019-04-07T22:21:32.011Z,10.63
2019-04-07T22:24:03.067Z,14.98
2019-04-07T22:26:33.634Z,13.40
2019-04-07T22:29:04.587Z,13.22
2019-04-07T22:32:03.429Z,12.30
2019-04-07T22:34:34.075Z,13.38
2019-04-07T22:37:04.765Z,15.38
2019-04-07T22:39:34.947Z,15.58
2019-04-07T22:42:05.193Z,13.00
2019-04-07T22:44:35.578Z,11.45
2019-04-07T22:47:07.090Z,12.18
2019-04-07T22:49:38.773Z,12.05
2019-04-07T22:52:09.648Z,16.60
2019-04-07T22:54:40.672Z,13.43
2019-04-07T22:57:35.488Z,15.05
2019-04-07T23:00:14.967Z,13.43
2019-04-07T23:02:48.602Z,14.63
2019-04-07T23:05:19.751Z,12.07
2019-04-07T23:07:50.191Z,12.80
2019-04-07T23:10:20.333Z,10.68
2019-04-07T23:12:51.069Z,12.78
2019-04-07T23:15:21.214Z,12.70
2019-04-07T23:17:51.438Z,11.70
2019-04-07T23:20:21.625Z,11.73
2019-04-07T23:22:52.104Z,11.48
2019-04-07T23:25:23.055Z,11.25
2019-04-07T23:27:54.298Z,16.17
2019-04-07T23:30:27.625Z,13.32
2019-04-07T23:32:57.910Z,16.15
2019-04-07T23:35:29.138Z,15.53
2019-04-07T23:37:59.488Z,13.85
2019-04-07T23:40:30.104Z,11.68
2019-04-07T23:43:00.635Z,16.02
2019-04-07T23:45:31.579Z,12.00
2019-04-07T23:48:02.054Z,16.15
2019-04-07T23:50:32.227Z,16.97
2019-04-07T23:53:24.058Z,14.50
2019-04-07T23:55:55.213Z,14.58
2019-04-07T23:58:25.579Z,14.75
